Time;durP1;ratioP1;P1;durP2;ratioP2;P2;SDS_P1;SDS_P2;PMS_P1;PMS_P2;Temp;Humidity;BMP_temperature;BMP_pressure;BME280_temperature;BME280_humidity;BME280_pressure;Samples;Min_cycle;Max_cycle;Signal;HPM_P1;HPM_P2
2022/04/20 00:00:03;;;;;;;;;;;;;;;;;;5096448;28;19935;-42
2022/04/20 00:02:28;;;;;;;;;;;;;;;;;;5078320;28;20252;-44
2022/04/20 00:04:55;;;;;;;;;;;;;;;;;;5095794;28;19908;-43
2022/04/20 00:07:20;;;;;;;;;;;;;;;;;;5095936;28;19941;-43
2022/04/20 00:09:45;;;;;;;;;;;;;;;;;;5096232;28;19908;-42
2022/04/20 00:12:11;;;;;;;;;;;;;;;;;;5096457;28;20269;-42
2022/04/20 00:14:36;;;;;;;;;;;;;;;;;;5096283;28;19908;-43
2022/04/20 00:17:01;;;;;;;;;;;;;;;;;;5115434;28;20298;-43
2022/04/20 00:19:26;;;;;;;;;;;;;;;;;;5116461;28;19968;-43
2022/04/20 00:21:52;;;;;;;;;;;;;;;;;;5116312;28;19965;-43
2022/04/20 00:24:17;;;;;;;;;;;;;;;;;;5098061;28;19907;-44
2022/04/20 00:26:42;;;;;;;;;;;;;;;;;;5116047;28;19938;-44
2022/04/20 00:29:07;;;;;;;;;;;;;;;;;;5116478;28;20297;-43
2022/04/20 00:31:32;;;;;;;;;;;;;;;;;;5098049;28;19904;-46
2022/04/20 00:34:00;;;;;;;;;;;;;;;;;;5116162;28;19908;-42
2022/04/20 00:36:25;;;;;;;;;;;;;;;;;;5116035;28;20271;-42
2022/04/20 00:38:50;;;;;;;;;;;;;;;;;;5115436;28;19989;-43
2022/04/20 00:41:15;;;;;;;;;;;;;;;;;;5116033;28;20006;-43
2022/04/20 00:43:40;;;;;;;;;;;;;;;;;;5098035;28;19914;-44
2022/04/20 00:46:05;;;;;;;;;;;;;;;;;;5115569;28;19955;-43
2022/04/20 00:48:31;;;;;;;;;;;;;;;;;;5115593;28;20441;-43
2022/04/20 00:50:56;;;;;;;;;;;;;;;;;;5115638;28;20010;-43
2022/04/20 00:53:21;;;;;;;;;;;;;;;;;;5115010;28;19919;-44
2022/04/20 00:55:46;;;;;;;;;;;;;;;;;;5103858;28;20359;-43
2022/04/20 00:58:13;;;;;;;;;;;;;;;;;;5095228;28;19968;-44
2022/04/20 01:00:38;;;;;;;;;;;;;;;;;;5095191;28;19915;-44
2022/04/20 01:03:03;;;;;;;;;;;;;;;;;;5095017;28;19908;-43
2022/04/20 01:05:28;;;;;;;;;;;;;;;;;;5102428;28;20373;-44
2022/04/20 01:07:53;;;;;;;;;;;;;;;;;;5115209;28;20438;-43
2022/04/20 01:10:19;;;;;;;;;;;;;;;;;;5115368;28;19994;-42
2022/04/20 01:12:44;;;;;;;;;;;;;;;;;;5115487;28;19914;-43
2022/04/20 01:15:09;;;;;;;;;;;;;;;;;;5114352;28;19995;-42
2022/04/20 01:17:34;;;;;;;;;;;;;;;;;;5115139;28;20026;-44
2022/04/20 01:19:59;;;;;;;;;;;;;;;;;;5115406;28;19998;-43
2022/04/20 01:22:24;;;;;;;;;;;;;;;;;;5115368;28;19911;-43
2022/04/20 01:24:50;;;;;;;;;;;;;;;;;;5115137;28;19915;-42
2022/04/20 01:27:15;;;;;;;;;;;;;;;;;;5115387;28;19919;-42
2022/04/20 01:29:40;;;;;;;;;;;;;;;;;;5115108;28;20377;-43
2022/04/20 01:32:05;;;;;;;;;;;;;;;;;;5115426;28;19915;-43
2022/04/20 01:34:30;;;;;;;;;;;;;;;;;;5115397;28;19952;-42
2022/04/20 01:36:55;;;;;;;;;;;;;;;;;;5114792;28;19919;-42
2022/04/20 01:39:20;;;;;;;;;;;;;;;;;;5115391;28;20003;-42
2022/04/20 01:41:45;;;;;;;;;;;;;;;;;;5101962;28;20414;-43
2022/04/20 01:44:11;;;;;;;;;;;;;;;;;;5095238;28;20345;-43
2022/04/20 01:46:36;;;;;;;;;;;;;;;;;;5094506;28;19926;-43
2022/04/20 01:49:01;;;;;;;;;;;;;;;;;;5076414;28;19908;-42
2022/04/20 01:54:04;;;;;;;;;;;;;;;;;;5086700;22;19931;-44
2022/04/20 01:56:30;;;;;;;;;;;;;;;;;;5077705;28;19913;-44
2022/04/20 01:58:55;;;;;;;;;;;;;;;;;;5077681;28;20347;-43
2022/04/20 02:04:03;;;;;;;;;;;;;;;;;;5078290;28;20004;-43
2022/04/20 02:06:28;;;;;;;;;;;;;;;;;;5080711;28;19951;-43
2022/04/20 02:08:54;;;;;;;;;;;;;;;;;;5099037;28;19908;-42
2022/04/20 02:11:19;;;;;;;;;;;;;;;;;;5080479;28;19908;-43
2022/04/20 02:13:44;;;;;;;;;;;;;;;;;;5098293;28;20319;-42
2022/04/20 02:16:09;;;;;;;;;;;;;;;;;;5098125;28;19912;-42
2022/04/20 02:18:34;;;;;;;;;;;;;;;;;;5098516;28;19912;-44
2022/04/20 02:20:59;;;;;;;;;;;;;;;;;;5098848;28;19908;-43
2022/04/20 02:23:26;;;;;;;;;;;;;;;;;;5080506;28;19934;-43
2022/04/20 02:25:51;;;;;;;;;;;;;;;;;;5097923;28;20293;-43
2022/04/20 02:28:16;;;;;;;;;;;;;;;;;;5098260;28;19912;-43
2022/04/20 02:30:42;;;;;;;;;;;;;;;;;;5098290;28;19908;-44
2022/04/20 02:33:07;;;;;;;;;;;;;;;;;;5098066;28;19908;-44
2022/04/20 02:35:32;;;;;;;;;;;;;;;;;;5097966;28;19965;-44
2022/04/20 02:37:57;;;;;;;;;;;;;;;;;;5098153;28;19961;-43
2022/04/20 02:40:22;;;;;;;;;;;;;;;;;;5098300;28;19904;-43
2022/04/20 02:42:48;;;;;;;;;;;;;;;;;;5098288;28;19908;-43
2022/04/20 02:45:13;;;;;;;;;;;;;;;;;;5097787;28;19923;-43
2022/04/20 02:47:38;;;;;;;;;;;;;;;;;;5097408;28;20371;-43
2022/04/20 02:50:03;;;;;;;;;;;;;;;;;;5097808;28;20002;-42
2022/04/20 02:52:28;;;;;;;;;;;;;;;;;;5097885;28;19969;-43
2022/04/20 02:54:54;;;;;;;;;;;;;;;;;;5097517;28;19961;-43
2022/04/20 02:57:19;;;;;;;;;;;;;;;;;;5097681;28;20432;-43
2022/04/20 02:59:44;;;;;;;;;;;;;;;;;;5098015;28;19908;-43
2022/04/20 03:02:09;;;;;;;;;;;;;;;;;;5097587;28;20031;-43
2022/04/20 03:04:34;;;;;;;;;;;;;;;;;;5097446;28;19915;-44
2022/04/20 03:07:00;;;;;;;;;;;;;;;;;;5097859;28;19991;-44
2022/04/20 03:09:25;;;;;;;;;;;;;;;;;;5097299;28;19919;-43
2022/04/20 03:11:50;;;;;;;;;;;;;;;;;;5097816;28;19933;-43
2022/04/20 03:14:18;;;;;;;;;;;;;;;;;;5096893;28;19930;-43
2022/04/20 03:16:43;;;;;;;;;;;;;;;;;;5096977;28;19919;-43
2022/04/20 03:19:08;;;;;;;;;;;;;;;;;;5097148;28;19908;-42
2022/04/20 03:21:33;;;;;;;;;;;;;;;;;;5097559;28;19911;-43
2022/04/20 03:23:58;;;;;;;;;;;;;;;;;;5097084;28;19909;-42
2022/04/20 03:26:23;;;;;;;;;;;;;;;;;;5096875;28;19952;-43
2022/04/20 03:28:49;;;;;;;;;;;;;;;;;;5097356;28;19936;-43
2022/04/20 03:31:14;;;;;;;;;;;;;;;;;;5097593;28;19908;-43
2022/04/20 03:33:39;;;;;;;;;;;;;;;;;;5097077;28;19915;-43
2022/04/20 03:36:04;;;;;;;;;;;;;;;;;;5084217;28;19923;-43
2022/04/20 03:38:29;;;;;;;;;;;;;;;;;;5076596;28;19909;-44
2022/04/20 03:40:54;;;;;;;;;;;;;;;;;;5077016;28;20003;-43
2022/04/20 03:43:20;;;;;;;;;;;;;;;;;;5076430;28;19909;-44
2022/04/20 03:45:45;;;;;;;;;;;;;;;;;;5085926;28;20370;-43
2022/04/20 03:48:10;;;;;;;;;;;;;;;;;;5096884;28;19916;-44
2022/04/20 03:50:35;;;;;;;;;;;;;;;;;;5096843;28;20017;-44
2022/04/20 03:53:00;;;;;;;;;;;;;;;;;;5096736;28;19920;-43
2022/04/20 03:55:25;;;;;;;;;;;;;;;;;;5096323;28;19916;-44
2022/04/20 03:57:50;;;;;;;;;;;;;;;;;;5096607;28;20336;-44
2022/04/20 04:00:15;;;;;;;;;;;;;;;;;;5096386;28;19945;-43
2022/04/20 04:02:41;;;;;;;;;;;;;;;;;;5096624;28;19919;-43
2022/04/20 04:05:06;;;;;;;;;;;;;;;;;;5096216;28;19911;-44
2022/04/20 04:07:31;;;;;;;;;;;;;;;;;;5096147;28;19916;-43
2022/04/20 04:09:56;;;;;;;;;;;;;;;;;;5096342;28;19909;-43
2022/04/20 04:12:22;;;;;;;;;;;;;;;;;;5096018;28;19915;-43
2022/04/20 04:14:47;;;;;;;;;;;;;;;;;;5094937;28;19909;-43
2022/04/20 04:17:12;;;;;;;;;;;;;;;;;;5096137;28;19958;-43
2022/04/20 04:19:38;;;;;;;;;;;;;;;;;;5095871;28;20431;-43
2022/04/20 04:22:03;;;;;;;;;;;;;;;;;;5096284;28;19908;-43
2022/04/20 04:24:37;;;;;;;;;;;;;;;;;;5095816;28;19960;-43
2022/04/20 04:27:03;;;;;;;;;;;;;;;;;;5096131;28;19973;-43
2022/04/20 04:29:28;;;;;;;;;;;;;;;;;;5096009;28;19908;-42
2022/04/20 04:31:53;;;;;;;;;;;;;;;;;;5096206;28;19908;-44
2022/04/20 04:34:18;;;;;;;;;;;;;;;;;;5095953;28;19960;-43
2022/04/20 04:36:44;;;;;;;;;;;;;;;;;;5095543;28;19912;-43
2022/04/20 04:39:09;;;;;;;;;;;;;;;;;;5096090;28;19912;-42
2022/04/20 04:41:34;;;;;;;;;;;;;;;;;;5095958;28;20391;-42
2022/04/20 04:43:59;;;;;;;;;;;;;;;;;;5096302;28;20065;-42
2022/04/20 04:49:08;;;;;;;;;;;;;;;;;;5096215;28;19988;-43
2022/04/20 04:51:33;;;;;;;;;;;;;;;;;;5095607;28;19908;-42
2022/04/20 04:53:58;;;;;;;;;;;;;;;;;;5095564;28;20329;-42
2022/04/20 04:56:23;;;;;;;;;;;;;;;;;;5095374;28;19916;-42
2022/04/20 04:58:48;;;;;;;;;;;;;;;;;;5095616;28;19961;-42
2022/04/20 05:01:13;;;;;;;;;;;;;;;;;;5095216;28;20019;-42
2022/04/20 05:03:39;;;;;;;;;;;;;;;;;;5095513;28;19908;-44
2022/04/20 05:06:04;;;;;;;;;;;;;;;;;;5094943;28;19916;-42
2022/04/20 05:08:29;;;;;;;;;;;;;;;;;;5095576;28;19912;-42
2022/04/20 05:10:54;;;;;;;;;;;;;;;;;;5077333;28;19912;-45
2022/04/20 05:13:19;;;;;;;;;;;;;;;;;;5095453;28;19915;-44
2022/04/20 05:15:44;;;;;;;;;;;;;;;;;;5095003;28;19916;-41
2022/04/20 05:18:09;;;;;;;;;;;;;;;;;;5095408;28;20355;-43
2022/04/20 05:20:34;;;;;;;;;;;;;;;;;;5082603;28;19912;-42
2022/04/20 05:23:00;;;;;;;;;;;;;;;;;;5078072;28;19912;-45
2022/04/20 05:25:25;;;;;;;;;;;;;;;;;;5078352;28;19919;-52
2022/04/20 05:27:50;;;;;;;;;;;;;;;;;;5077669;28;20038;-45
2022/04/20 05:30:15;;;;;;;;;;;;;;;;;;5078112;28;19938;-45
2022/04/20 05:32:41;;;;;;;;;;;;;;;;;;5074896;28;19916;-46
2022/04/20 05:35:06;;;;;;;;;;;;;;;;;;5088754;28;20037;-47
2022/04/20 05:42:59;;;;;;;;;;;;;;;;;;5077678;28;20452;-45
2022/04/20 05:45:24;;;;;;;;;;;;;;;;;;5074365;28;19913;-45
2022/04/20 05:47:49;;;;;;;;;;;;;;;;;;5072154;28;20442;-45
2022/04/20 05:50:15;;;;;;;;;;;;;;;;;;5075053;28;19916;-46
2022/04/20 05:52:40;;;;;;;;;;;;;;;;;;5069294;28;19928;-45
2022/04/20 05:55:05;;;;;;;;;;;;;;;;;;5073539;28;19919;-46
2022/04/20 05:57:30;;;;;;;;;;;;;;;;;;5074153;28;20006;-46
2022/04/20 05:59:55;;;;;;;;;;;;;;;;;;5056337;28;19930;-45
2022/04/20 06:02:20;;;;;;;;;;;;;;;;;;5054788;28;19920;-46
2022/04/20 06:04:45;;;;;;;;;;;;;;;;;;5052513;28;19925;-45
2022/04/20 06:07:11;;;;;;;;;;;;;;;;;;5056584;28;19932;-47
2022/04/20 06:09:36;;;;;;;;;;;;;;;;;;5041600;28;19965;-46
2022/04/20 06:12:01;;;;;;;;;;;;;;;;;;5026916;28;22177;-47
2022/04/20 06:14:26;;;;;;;;;;;;;;;;;;5009876;28;22026;-44
2022/04/20 06:16:51;;;;;;;;;;;;;;;;;;4970455;28;19928;-46
2022/04/20 06:19:17;;;;;;;;;;;;;;;;;;4965151;28;23155;-45
2022/04/20 06:21:42;;;;;;;;;;;;;;;;;;4830806;28;20809;-47
2022/04/20 06:24:07;;;;;;;;;;;;;;;;;;4872059;28;22073;-47
2022/04/20 06:26:32;;;;;;;;;;;;;;;;;;4804840;28;19970;-49
2022/04/20 06:28:57;;;;;;;;;;;;;;;;;;4722009;28;22230;-45
2022/04/20 06:31:22;;;;;;;;;;;;;;;;;;4765808;28;19928;-45
2022/04/20 06:33:48;;;;;;;;;;;;;;;;;;4775397;28;21942;-48
2022/04/20 06:36:13;;;;;;;;;;;;;;;;;;4872132;28;19924;-48
2022/04/20 06:38:38;;;;;;;;;;;;;;;;;;4882678;28;21693;-48
2022/04/20 06:41:03;;;;;;;;;;;;;;;;;;4862114;28;19943;-49
2022/04/20 06:43:29;;;;;;;;;;;;;;;;;;4918282;28;19970;-48
2022/04/20 06:45:54;;;;;;;;;;;;;;;;;;4920504;28;19983;-47
2022/04/20 06:48:19;;;;;;;;;;;;;;;;;;4920037;28;22218;-46
2022/04/20 06:50:45;;;;;;;;;;;;;;;;;;4888990;28;19926;-46
2022/04/20 06:58:42;;;;;;;;;;;;;;;;;;4890226;28;19927;-45
2022/04/20 07:01:07;;;;;;;;;;;;;;;;;;4848294;28;22544;-46
2022/04/20 07:03:32;;;;;;;;;;;;;;;;;;4864218;28;19927;-46
2022/04/20 07:05:58;;;;;;;;;;;;;;;;;;4903365;28;20632;-47
2022/04/20 07:08:23;;;;;;;;;;;;;;;;;;4851716;28;20644;-47
2022/04/20 07:10:48;;;;;;;;;;;;;;;;;;4786726;28;26025;-48
2022/04/20 07:13:13;;;;;;;;;;;;;;;;;;4764895;28;22037;-51
2022/04/20 07:15:38;;;;;;;;;;;;;;;;;;4726370;28;21759;-48
2022/04/20 07:18:05;;;;;;;;;;;;;;;;;;4684181;28;21137;-48
2022/04/20 07:20:30;;;;;;;;;;;;;;;;;;4601293;28;30050;-48
2022/04/20 07:22:55;;;;;;;;;;;;;;;;;;4586851;28;20462;-47
2022/04/20 07:25:20;;;;;;;;;;;;;;;;;;4595342;28;20055;-47
2022/04/20 07:27:47;;;;;;;;;;;;;;;;;;4654957;28;21359;-47
2022/04/20 07:30:12;;;;;;;;;;;;;;;;;;4693887;28;20546;-47
2022/04/20 07:32:37;;;;;;;;;;;;;;;;;;4749447;28;23321;-48
2022/04/20 07:35:02;;;;;;;;;;;;;;;;;;4797338;28;20666;-47
2022/04/20 07:37:27;;;;;;;;;;;;;;;;;;4779539;28;20581;-46
2022/04/20 07:39:52;;;;;;;;;;;;;;;;;;4747301;28;21311;-47
2022/04/20 07:42:17;;;;;;;;;;;;;;;;;;4735073;28;22203;-47
2022/04/20 07:44:43;;;;;;;;;;;;;;;;;;4762541;28;19920;-48
2022/04/20 07:47:08;;;;;;;;;;;;;;;;;;4761453;28;26178;-48
2022/04/20 07:52:37;;;;;;;;;;;;;;;;;;4649421;28;20194;-48
2022/04/20 07:55:02;;;;;;;;;;;;;;;;;;4623574;28;19950;-47
2022/04/20 07:57:27;;;;;;;;;;;;;;;;;;4664355;28;19929;-48
2022/04/20 07:59:52;;;;;;;;;;;;;;;;;;4723627;28;22632;-46
2022/04/20 08:02:20;;;;;;;;;;;;;;;;;;4734266;28;21388;-48
2022/04/20 08:04:46;;;;;;;;;;;;;;;;;;4704868;28;19987;-48
2022/04/20 08:07:11;;;;;;;;;;;;;;;;;;4736127;28;23558;-47
2022/04/20 08:09:36;;;;;;;;;;;;;;;;;;4660157;28;20769;-48
2022/04/20 08:12:01;;;;;;;;;;;;;;;;;;4567563;28;20966;-46
2022/04/20 08:14:26;;;;;;;;;;;;;;;;;;4633682;28;22736;-47
2022/04/20 08:16:52;;;;;;;;;;;;;;;;;;4711033;28;20135;-48
2022/04/20 08:19:17;;;;;;;;;;;;;;;;;;4776497;28;28852;-47
2022/04/20 08:21:42;;;;;;;;;;;;;;;;;;4768025;28;20040;-48
2022/04/20 08:24:07;;;;;;;;;;;;;;;;;;4767176;28;25654;-47
2022/04/20 08:26:32;;;;;;;;;;;;;;;;;;4626257;28;19935;-48
2022/04/20 08:28:57;;;;;;;;;;;;;;;;;;4514883;28;20695;-46
2022/04/20 08:31:22;;;;;;;;;;;;;;;;;;4566133;28;21558;-47
2022/04/20 08:33:47;;;;;;;;;;;;;;;;;;4660079;28;26663;-46
2022/04/20 08:36:13;;;;;;;;;;;;;;;;;;4709011;28;22933;-47
2022/04/20 08:38:38;;;;;;;;;;;;;;;;;;4702967;28;20616;-48
2022/04/20 08:41:03;;;;;;;;;;;;;;;;;;4789941;28;20659;-48
2022/04/20 08:43:29;;;;;;;;;;;;;;;;;;4774800;28;22284;-48
2022/04/20 08:45:54;;;;;;;;;;;;;;;;;;4798444;28;22772;-47
2022/04/20 08:48:20;;;;;;;;;;;;;;;;;;4811433;28;24733;-47
2022/04/20 08:50:45;;;;;;;;;;;;;;;;;;4780095;28;27923;-46
2022/04/20 08:53:10;;;;;;;;;;;;;;;;;;4802399;28;20582;-50
2022/04/20 08:55:35;;;;;;;;;;;;;;;;;;4827461;28;22978;-47
2022/04/20 08:58:00;;;;;;;;;;;;;;;;;;4815689;28;19982;-49
2022/04/20 09:00:27;;;;;;;;;;;;;;;;;;4791280;28;20330;-50
2022/04/20 09:02:52;;;;;;;;;;;;;;;;;;4766495;28;26708;-50
2022/04/20 09:05:17;;;;;;;;;;;;;;;;;;4759804;28;30913;-48
2022/04/20 09:07:43;;;;;;;;;;;;;;;;;;4732130;28;30924;-45
2022/04/20 09:10:08;;;;;;;;;;;;;;;;;;4756689;28;30654;-47
2022/04/20 09:12:33;;;;;;;;;;;;;;;;;;4760031;28;22712;-47
2022/04/20 09:15:01;;;;;;;;;;;;;;;;;;4712874;28;37760;-49
2022/04/20 09:17:26;;;;;;;;;;;;;;;;;;4646328;28;34958;-49
2022/04/20 09:19:51;;;;;;;;;;;;;;;;;;4652119;28;22347;-47
2022/04/20 09:22:17;;;;;;;;;;;;;;;;;;4561961;28;22599;-47
2022/04/20 09:24:42;;;;;;;;;;;;;;;;;;4483345;28;31166;-47
2022/04/20 09:27:07;;;;;;;;;;;;;;;;;;4547294;28;25690;-48
2022/04/20 09:29:32;;;;;;;;;;;;;;;;;;4688695;28;19975;-47
2022/04/20 09:31:57;;;;;;;;;;;;;;;;;;4747119;28;22355;-47
2022/04/20 09:34:22;;;;;;;;;;;;;;;;;;4738904;28;24482;-48
2022/04/20 09:36:49;;;;;;;;;;;;;;;;;;4741466;28;20672;-48
2022/04/20 09:39:14;;;;;;;;;;;;;;;;;;4821818;28;20090;-46
2022/04/20 09:41:40;;;;;;;;;;;;;;;;;;4808951;28;20745;-47
2022/04/20 09:44:05;;;;;;;;;;;;;;;;;;4775861;28;20127;-46
2022/04/20 09:49:13;;;;;;;;;;;;;;;;;;4748323;28;24619;-46
2022/04/20 09:51:39;;;;;;;;;;;;;;;;;;4718898;28;20525;-48
2022/04/20 09:54:05;;;;;;;;;;;;;;;;;;4763184;28;19954;-51
2022/04/20 09:56:31;;;;;;;;;;;;;;;;;;4765702;28;28171;-47
2022/04/20 09:58:56;;;;;;;;;;;;;;;;;;4756610;28;22241;-48
2022/04/20 10:01:21;;;;;;;;;;;;;;;;;;4721253;28;48072;-52
2022/04/20 10:03:46;;;;;;;;;;;;;;;;;;4682613;28;28001;-47
2022/04/20 10:06:12;;;;;;;;;;;;;;;;;;4672752;28;25892;-48
2022/04/20 10:08:37;;;;;;;;;;;;;;;;;;4633786;28;23121;-48
2022/04/20 10:11:03;;;;;;;;;;;;;;;;;;4455262;28;28426;-47
2022/04/20 10:13:29;;;;;;;;;;;;;;;;;;4576629;28;22540;-49
2022/04/20 10:16:07;;;;;;;;;;;;;;;;;;4586513;28;21603;-47
2022/04/20 10:18:32;;;;;;;;;;;;;;;;;;4672783;28;23289;-48
2022/04/20 10:20:57;;;;;;;;;;;;;;;;;;4724277;28;28494;-49
2022/04/20 10:23:22;;;;;;;;;;;;;;;;;;4748699;28;24588;-46
2022/04/20 10:25:47;;;;;;;;;;;;;;;;;;4796289;28;20029;-48
2022/04/20 10:28:12;;;;;;;;;;;;;;;;;;4783635;28;20656;-49
2022/04/20 10:30:38;;;;;;;;;;;;;;;;;;4813073;28;20037;-48
2022/04/20 10:33:04;;;;;;;;;;;;;;;;;;4804918;28;20589;-48
2022/04/20 10:35:30;;;;;;;;;;;;;;;;;;4791442;28;23900;-48
2022/04/20 10:37:55;;;;;;;;;;;;;;;;;;4788739;28;19920;-49
2022/04/20 10:40:20;;;;;;;;;;;;;;;;;;4780934;28;26252;-47
2022/04/20 10:42:47;;;;;;;;;;;;;;;;;;4796189;28;20639;-47
2022/04/20 10:45:12;;;;;;;;;;;;;;;;;;4798936;28;23113;-48
2022/04/20 10:47:38;;;;;;;;;;;;;;;;;;4830262;28;26086;-50
2022/04/20 10:50:03;;;;;;;;;;;;;;;;;;4807169;28;42227;-47
2022/04/20 10:52:28;;;;;;;;;;;;;;;;;;4831422;28;27394;-48
2022/04/20 10:54:54;;;;;;;;;;;;;;;;;;4782481;28;22028;-49
2022/04/20 10:57:19;;;;;;;;;;;;;;;;;;4778749;28;20671;-49
2022/04/20 10:59:44;;;;;;;;;;;;;;;;;;4764123;28;21921;-47
2022/04/20 11:02:09;;;;;;;;;;;;;;;;;;4734006;28;20862;-47
2022/04/20 11:04:36;;;;;;;;;;;;;;;;;;4772652;28;20006;-45
2022/04/20 11:07:01;;;;;;;;;;;;;;;;;;4818385;28;21730;-48
2022/04/20 11:09:26;;;;;;;;;;;;;;;;;;4859445;28;19942;-47
2022/04/20 11:20:04;;;;;;;;;;;;;;;;;;4874209;28;20064;-48
2022/04/20 11:22:29;;;;;;;;;;;;;;;;;;4882086;28;19920;-48
2022/04/20 11:24:54;;;;;;;;;;;;;;;;;;4866701;28;19970;-48
2022/04/20 11:27:19;;;;;;;;;;;;;;;;;;4841797;28;20256;-47
2022/04/20 11:29:47;;;;;;;;;;;;;;;;;;4809095;28;20132;-48
2022/04/20 11:32:12;;;;;;;;;;;;;;;;;;4765165;28;21480;-48
2022/04/20 11:34:38;;;;;;;;;;;;;;;;;;4818654;28;21632;-52
2022/04/20 11:37:03;;;;;;;;;;;;;;;;;;4850912;28;30290;-46
2022/04/20 11:39:29;;;;;;;;;;;;;;;;;;4885470;28;19927;-46
2022/04/20 11:41:55;;;;;;;;;;;;;;;;;;4903942;28;43189;-46
2022/04/20 11:44:20;;;;;;;;;;;;;;;;;;4925014;28;20394;-47
2022/04/20 11:46:45;;;;;;;;;;;;;;;;;;4923728;28;19965;-45
2022/04/20 11:49:10;;;;;;;;;;;;;;;;;;4941241;28;22026;-47
2022/04/20 11:51:35;;;;;;;;;;;;;;;;;;4936430;28;19928;-49
2022/04/20 11:54:00;;;;;;;;;;;;;;;;;;4932773;28;19935;-48
2022/04/20 11:56:26;;;;;;;;;;;;;;;;;;4927641;28;21723;-47
2022/04/20 11:58:51;;;;;;;;;;;;;;;;;;4924430;28;20054;-47
2022/04/20 12:01:16;;;;;;;;;;;;;;;;;;4939632;28;22342;-46
2022/04/20 12:03:43;;;;;;;;;;;;;;;;;;4957995;28;19921;-45
2022/04/20 12:06:08;;;;;;;;;;;;;;;;;;4952356;28;19920;-48
2022/04/20 12:08:33;;;;;;;;;;;;;;;;;;4960474;28;21514;-47
2022/04/20 12:10:59;;;;;;;;;;;;;;;;;;4944955;28;19920;-45
2022/04/20 12:13:24;;;;;;;;;;;;;;;;;;4953036;28;19931;-49
2022/04/20 12:15:49;;;;;;;;;;;;;;;;;;4935954;28;19927;-46
2022/04/20 12:18:14;;;;;;;;;;;;;;;;;;4932194;28;20093;-47
2022/04/20 12:20:39;;;;;;;;;;;;;;;;;;4870522;28;20117;-47
2022/04/20 12:23:04;;;;;;;;;;;;;;;;;;4795305;28;19969;-47
2022/04/20 12:25:30;;;;;;;;;;;;;;;;;;4873952;22;19936;-48
2022/04/20 12:27:55;;;;;;;;;;;;;;;;;;4855539;28;20565;-46
2022/04/20 12:30:20;;;;;;;;;;;;;;;;;;4940311;28;19920;-47
2022/04/20 12:32:46;;;;;;;;;;;;;;;;;;4949421;28;19920;-48
2022/04/20 12:35:11;;;;;;;;;;;;;;;;;;4966664;28;19927;-47
2022/04/20 12:37:39;;;;;;;;;;;;;;;;;;4955703;28;19920;-47
2022/04/20 12:40:04;;;;;;;;;;;;;;;;;;4964307;28;19924;-47
2022/04/20 12:42:30;;;;;;;;;;;;;;;;;;4962689;28;19996;-46
2022/04/20 12:44:59;;;;;;;;;;;;;;;;;;4958050;28;20413;-46
2022/04/20 12:47:24;;;;;;;;;;;;;;;;;;4970888;28;19989;-46
2022/04/20 12:49:51;;;;;;;;;;;;;;;;;;4994608;28;19920;-48
2022/04/20 12:52:16;;;;;;;;;;;;;;;;;;4997034;28;20389;-46
2022/04/20 12:54:41;;;;;;;;;;;;;;;;;;4981780;28;19966;-47
2022/04/20 13:02:34;;;;;;;;;;;;;;;;;;4984758;28;20301;-46
2022/04/20 13:04:59;;;;;;;;;;;;;;;;;;4955324;28;23611;-47
2022/04/20 13:07:24;;;;;;;;;;;;;;;;;;4935550;28;22133;-48
2022/04/20 13:09:49;;;;;;;;;;;;;;;;;;4964201;28;21751;-48
2022/04/20 13:12:14;;;;;;;;;;;;;;;;;;4860639;28;20029;-47
2022/04/20 13:14:41;;;;;;;;;;;;;;;;;;4805085;28;22261;-47
2022/04/20 13:17:09;;;;;;;;;;;;;;;;;;4891100;28;20022;-45
2022/04/20 13:19:35;;;;;;;;;;;;;;;;;;4956201;28;20002;-44
2022/04/20 13:22:00;;;;;;;;;;;;;;;;;;4976054;28;19921;-48
2022/04/20 13:29:53;;;;;;;;;;;;;;;;;;4992581;28;19927;-46
2022/04/20 13:32:18;;;;;;;;;;;;;;;;;;4996498;28;19955;-48
2022/04/20 13:34:43;;;;;;;;;;;;;;;;;;4992967;28;20350;-47
2022/04/20 13:37:09;;;;;;;;;;;;;;;;;;5006274;28;20655;-46
2022/04/20 13:39:34;;;;;;;;;;;;;;;;;;4999387;28;19920;-46
2022/04/20 13:41:59;;;;;;;;;;;;;;;;;;4994553;28;19921;-47
2022/04/20 13:44:24;;;;;;;;;;;;;;;;;;4994929;28;20001;-46
2022/04/20 13:46:49;;;;;;;;;;;;;;;;;;5002681;28;19921;-47
2022/04/20 13:49:14;;;;;;;;;;;;;;;;;;5007946;28;20423;-46
2022/04/20 13:51:40;;;;;;;;;;;;;;;;;;4992966;28;20051;-48
2022/04/20 13:54:05;;;;;;;;;;;;;;;;;;5004010;28;19920;-46
2022/04/20 13:56:30;;;;;;;;;;;;;;;;;;5002725;28;20287;-45
2022/04/20 13:58:55;;;;;;;;;;;;;;;;;;4987643;28;20450;-46
2022/04/20 14:01:21;;;;;;;;;;;;;;;;;;4921756;28;19920;-47
2022/04/20 14:03:46;;;;;;;;;;;;;;;;;;4958386;28;22654;-47
2022/04/20 14:06:11;;;;;;;;;;;;;;;;;;4977507;28;20333;-47
2022/04/20 14:08:37;;;;;;;;;;;;;;;;;;5025938;28;20071;-49
2022/04/20 14:11:02;;;;;;;;;;;;;;;;;;5045142;28;20401;-47
2022/04/20 14:13:27;;;;;;;;;;;;;;;;;;5039269;28;20002;-47
2022/04/20 14:15:52;;;;;;;;;;;;;;;;;;5035023;28;20379;-47
2022/04/20 14:18:17;;;;;;;;;;;;;;;;;;5051272;28;19920;-47
2022/04/20 14:20:42;;;;;;;;;;;;;;;;;;5053754;28;19966;-47
2022/04/20 14:23:07;;;;;;;;;;;;;;;;;;5061314;28;19927;-47
2022/04/20 14:33:44;;;;;;;;;;;;;;;;;;5051492;28;19928;-46
2022/04/20 14:36:09;;;;;;;;;;;;;;;;;;5062274;28;20375;-45
2022/04/20 14:38:35;;;;;;;;;;;;;;;;;;5057391;28;19920;-46
2022/04/20 14:41:00;;;;;;;;;;;;;;;;;;5056567;28;20073;-46
2022/04/20 14:43:25;;;;;;;;;;;;;;;;;;5061055;28;20298;-47
2022/04/20 14:45:51;;;;;;;;;;;;;;;;;;5061641;28;19920;-45
2022/04/20 14:48:16;;;;;;;;;;;;;;;;;;5054206;28;19924;-47
2022/04/20 14:50:41;;;;;;;;;;;;;;;;;;5062242;28;20287;-48
2022/04/20 14:53:07;;;;;;;;;;;;;;;;;;5051415;28;19983;-46
2022/04/20 14:55:34;;;;;;;;;;;;;;;;;;5041634;28;19970;-46
2022/04/20 14:57:59;;;;;;;;;;;;;;;;;;5049078;28;20069;-46
2022/04/20 15:00:24;;;;;;;;;;;;;;;;;;5051552;28;20015;-49
2022/04/20 15:02:50;;;;;;;;;;;;;;;;;;5059002;28;19919;-46
2022/04/20 15:05:15;;;;;;;;;;;;;;;;;;5052650;28;19912;-47
2022/04/20 15:07:40;;;;;;;;;;;;;;;;;;5063087;28;19936;-48
2022/04/20 15:10:05;;;;;;;;;;;;;;;;;;5060857;28;20268;-46
2022/04/20 15:12:31;;;;;;;;;;;;;;;;;;5062222;28;19921;-47
2022/04/20 15:14:58;;;;;;;;;;;;;;;;;;5068785;28;19913;-47
2022/04/20 15:17:23;;;;;;;;;;;;;;;;;;5069298;28;19912;-46
2022/04/20 15:19:51;;;;;;;;;;;;;;;;;;5067712;28;19920;-47
2022/04/20 15:22:16;;;;;;;;;;;;;;;;;;5065484;28;19919;-46
2022/04/20 15:24:42;;;;;;;;;;;;;;;;;;5073992;28;19913;-46
2022/04/20 15:27:07;;;;;;;;;;;;;;;;;;5062803;28;20631;-45
2022/04/20 15:29:32;;;;;;;;;;;;;;;;;;5073178;28;19938;-46
2022/04/20 15:31:57;;;;;;;;;;;;;;;;;;5075202;28;20003;-46
2022/04/20 15:34:23;;;;;;;;;;;;;;;;;;5063138;28;19912;-46
2022/04/20 15:36:48;;;;;;;;;;;;;;;;;;5068095;28;19912;-46
2022/04/20 15:39:13;;;;;;;;;;;;;;;;;;5066982;28;19916;-49
2022/04/20 15:41:41;;;;;;;;;;;;;;;;;;5067776;28;19919;-47
2022/04/20 15:44:06;;;;;;;;;;;;;;;;;;5064246;28;19912;-47
2022/04/20 15:46:31;;;;;;;;;;;;;;;;;;5056615;28;19913;-45
2022/04/20 15:48:56;;;;;;;;;;;;;;;;;;5069126;28;19916;-47
2022/04/20 15:51:21;;;;;;;;;;;;;;;;;;5069535;28;19966;-45
2022/04/20 15:53:46;;;;;;;;;;;;;;;;;;5074673;28;20446;-46
2022/04/20 16:01:39;;;;;;;;;;;;;;;;;;5071252;28;19920;-45
2022/04/20 16:04:05;;;;;;;;;;;;;;;;;;5065396;28;19912;-44
2022/04/20 16:06:30;;;;;;;;;;;;;;;;;;5062715;28;19913;-44
2022/04/20 16:08:56;;;;;;;;;;;;;;;;;;5055375;28;19984;-43
2022/04/20 16:11:21;;;;;;;;;;;;;;;;;;5055289;28;19909;-43
2022/04/20 16:13:46;;;;;;;;;;;;;;;;;;5055278;28;19908;-45
2022/04/20 16:16:11;;;;;;;;;;;;;;;;;;5055230;28;20012;-44
2022/04/20 16:18:36;;;;;;;;;;;;;;;;;;5055402;28;19908;-44
2022/04/20 16:21:01;;;;;;;;;;;;;;;;;;5055272;28;20283;-45
2022/04/20 16:23:26;;;;;;;;;;;;;;;;;;5062387;28;20006;-44
2022/04/20 16:25:52;;;;;;;;;;;;;;;;;;5074044;28;20015;-45
2022/04/20 16:28:17;;;;;;;;;;;;;;;;;;5074908;28;19955;-44
2022/04/20 16:30:42;;;;;;;;;;;;;;;;;;5075070;28;19908;-45
2022/04/20 16:33:08;;;;;;;;;;;;;;;;;;5074616;28;19909;-46
2022/04/20 16:35:33;;;;;;;;;;;;;;;;;;5074985;28;20142;-45
2022/04/20 16:37:59;;;;;;;;;;;;;;;;;;5074617;28;19997;-46
2022/04/20 16:40:24;;;;;;;;;;;;;;;;;;5074824;28;19908;-44
2022/04/20 16:42:50;;;;;;;;;;;;;;;;;;5074790;28;20315;-45
2022/04/20 16:45:15;;;;;;;;;;;;;;;;;;5074618;28;20372;-44
2022/04/20 16:47:40;;;;;;;;;;;;;;;;;;5074534;28;20347;-44
2022/04/20 16:50:06;;;;;;;;;;;;;;;;;;5074528;28;19908;-44
2022/04/20 16:52:33;;;;;;;;;;;;;;;;;;5072736;28;19909;-43
2022/04/20 16:54:59;;;;;;;;;;;;;;;;;;5054390;28;19967;-43
2022/04/20 16:57:24;;;;;;;;;;;;;;;;;;5054575;28;19909;-46
2022/04/20 16:59:49;;;;;;;;;;;;;;;;;;5054390;28;19916;-45
2022/04/20 17:02:14;;;;;;;;;;;;;;;;;;5054406;28;19917;-46
2022/04/20 17:04:39;;;;;;;;;;;;;;;;;;5054151;28;19909;-44
2022/04/20 17:07:04;;;;;;;;;;;;;;;;;;5054146;28;19908;-44
2022/04/20 17:09:29;;;;;;;;;;;;;;;;;;5054506;28;19928;-44
2022/04/20 17:11:55;;;;;;;;;;;;;;;;;;5054476;28;19923;-43
2022/04/20 17:14:20;;;;;;;;;;;;;;;;;;5054235;28;19955;-44
2022/04/20 17:16:45;;;;;;;;;;;;;;;;;;5054132;28;20390;-44
2022/04/20 17:19:11;;;;;;;;;;;;;;;;;;5054157;28;19963;-43
2022/04/20 17:27:03;;;;;;;;;;;;;;;;;;5054040;28;19923;-43
2022/04/20 17:29:28;;;;;;;;;;;;;;;;;;5054074;28;20007;-45
2022/04/20 17:31:53;;;;;;;;;;;;;;;;;;5054189;28;19913;-45
2022/04/20 17:34:19;;;;;;;;;;;;;;;;;;5053809;28;20345;-44